sensor_id;sensor_type;location;lat;lon;timestamp;P1;durP1;ratioP1;P2;durP2;ratioP2
29902;SDS011;30288;50.514;9.678;2023-04-19T00:01:16;14.95;;;10.02;;
29902;SDS011;30288;50.514;9.678;2023-04-19T00:03:21;17.80;;;10.93;;
29902;SDS011;30288;50.514;9.678;2023-04-19T00:05:27;17.63;;;11.13;;
29902;SDS011;30288;50.514;9.678;2023-04-19T00:07:33;18.95;;;10.88;;
29902;SDS011;30288;50.514;9.678;2023-04-19T00:09:38;15.73;;;10.32;;
29902;SDS011;30288;50.514;9.678;2023-04-19T00:11:43;17.50;;;9.98;;
29902;SDS011;30288;50.514;9.678;2023-04-19T00:13:49;18.88;;;10.13;;
29902;SDS011;30288;50.514;9.678;2023-04-19T00:15:54;16.73;;;10.05;;
29902;SDS011;30288;50.514;9.678;2023-04-19T00:18:02;17.48;;;9.73;;
29902;SDS011;30288;50.514;9.678;2023-04-19T00:20:08;21.50;;;10.52;;
29902;SDS011;30288;50.514;9.678;2023-04-19T00:22:14;18.45;;;10.32;;
29902;SDS011;30288;50.514;9.678;2023-04-19T00:24:20;14.32;;;9.82;;
29902;SDS011;30288;50.514;9.678;2023-04-19T00:26:26;20.55;;;9.98;;
29902;SDS011;30288;50.514;9.678;2023-04-19T00:28:32;15.38;;;10.75;;
29902;SDS011;30288;50.514;9.678;2023-04-19T00:30:37;16.70;;;10.15;;
29902;SDS011;30288;50.514;9.678;2023-04-19T00:32:44;15.95;;;10.50;;
29902;SDS011;30288;50.514;9.678;2023-04-19T00:34:52;15.75;;;10.05;;
29902;SDS011;30288;50.514;9.678;2023-04-19T00:36:57;17.83;;;10.88;;
29902;SDS011;30288;50.514;9.678;2023-04-19T00:39:06;16.88;;;10.65;;
29902;SDS011;30288;50.514;9.678;2023-04-19T00:41:12;17.75;;;10.40;;
29902;SDS011;30288;50.514;9.678;2023-04-19T00:43:17;18.75;;;12.88;;
29902;SDS011;30288;50.514;9.678;2023-04-19T00:45:22;18.95;;;11.13;;
29902;SDS011;30288;50.514;9.678;2023-04-19T00:47:28;18.88;;;10.93;;
29902;SDS011;30288;50.514;9.678;2023-04-19T00:49:33;19.50;;;12.07;;
29902;SDS011;30288;50.514;9.678;2023-04-19T00:51:42;20.25;;;13.25;;
29902;SDS011;30288;50.514;9.678;2023-04-19T00:53:47;22.38;;;12.93;;
29902;SDS011;30288;50.514;9.678;2023-04-19T00:55:53;17.50;;;12.25;;
29902;SDS011;30288;50.514;9.678;2023-04-19T00:58:00;19.80;;;12.93;;
29902;SDS011;30288;50.514;9.678;2023-04-19T01:00:07;18.75;;;12.55;;
29902;SDS011;30288;50.514;9.678;2023-04-19T01:02:13;20.48;;;14.40;;
29902;SDS011;30288;50.514;9.678;2023-04-19T01:04:19;19.00;;;11.85;;
29902;SDS011;30288;50.514;9.678;2023-04-19T01:06:25;21.75;;;13.40;;
29902;SDS011;30288;50.514;9.678;2023-04-19T01:08:33;24.58;;;14.35;;
29902;SDS011;30288;50.514;9.678;2023-04-19T01:10:38;23.42;;;13.52;;
29902;SDS011;30288;50.514;9.678;2023-04-19T01:12:43;19.45;;;13.50;;
29902;SDS011;30288;50.514;9.678;2023-04-19T01:14:49;22.42;;;14.52;;
29902;SDS011;30288;50.514;9.678;2023-04-19T01:16:55;23.50;;;14.30;;
29902;SDS011;30288;50.514;9.678;2023-04-19T01:19:01;23.75;;;15.07;;
29902;SDS011;30288;50.514;9.678;2023-04-19T01:21:06;22.23;;;15.20;;
29902;SDS011;30288;50.514;9.678;2023-04-19T01:23:15;22.25;;;15.43;;
29902;SDS011;30288;50.514;9.678;2023-04-19T01:25:22;22.60;;;15.65;;
29902;SDS011;30288;50.514;9.678;2023-04-19T01:27:27;26.45;;;18.17;;
29902;SDS011;30288;50.514;9.678;2023-04-19T01:29:33;23.63;;;15.85;;
29902;SDS011;30288;50.514;9.678;2023-04-19T01:31:38;21.10;;;15.75;;
29902;SDS011;30288;50.514;9.678;2023-04-19T01:33:43;25.73;;;17.40;;
29902;SDS011;30288;50.514;9.678;2023-04-19T01:35:48;22.20;;;15.82;;
29902;SDS011;30288;50.514;9.678;2023-04-19T01:37:54;24.13;;;16.70;;
29902;SDS011;30288;50.514;9.678;2023-04-19T01:40:01;23.20;;;16.33;;
29902;SDS011;30288;50.514;9.678;2023-04-19T01:42:07;23.63;;;17.20;;
29902;SDS011;30288;50.514;9.678;2023-04-19T01:44:12;27.27;;;18.08;;
29902;SDS011;30288;50.514;9.678;2023-04-19T01:46:18;32.08;;;18.13;;
29902;SDS011;30288;50.514;9.678;2023-04-19T01:48:24;27.20;;;16.15;;
29902;SDS011;30288;50.514;9.678;2023-04-19T01:50:30;26.35;;;17.00;;
29902;SDS011;30288;50.514;9.678;2023-04-19T01:52:38;24.85;;;17.67;;
29902;SDS011;30288;50.514;9.678;2023-04-19T01:54:44;21.85;;;16.38;;
29902;SDS011;30288;50.514;9.678;2023-04-19T01:56:52;28.42;;;16.70;;
29902;SDS011;30288;50.514;9.678;2023-04-19T01:58:57;25.55;;;17.30;;
29902;SDS011;30288;50.514;9.678;2023-04-19T02:01:04;26.10;;;16.60;;
29902;SDS011;30288;50.514;9.678;2023-04-19T02:03:13;26.38;;;16.20;;
29902;SDS011;30288;50.514;9.678;2023-04-19T02:05:18;22.25;;;15.63;;
29902;SDS011;30288;50.514;9.678;2023-04-19T02:07:23;28.55;;;16.15;;
29902;SDS011;30288;50.514;9.678;2023-04-19T02:09:33;24.63;;;16.40;;
29902;SDS011;30288;50.514;9.678;2023-04-19T02:11:39;26.77;;;16.17;;
29902;SDS011;30288;50.514;9.678;2023-04-19T02:13:47;23.05;;;15.55;;
29902;SDS011;30288;50.514;9.678;2023-04-19T02:15:52;30.27;;;14.75;;
29902;SDS011;30288;50.514;9.678;2023-04-19T02:17:57;26.85;;;14.63;;
29902;SDS011;30288;50.514;9.678;2023-04-19T02:20:04;24.88;;;15.65;;
29902;SDS011;30288;50.514;9.678;2023-04-19T02:22:11;24.27;;;15.90;;
29902;SDS011;30288;50.514;9.678;2023-04-19T02:24:16;26.08;;;15.65;;
29902;SDS011;30288;50.514;9.678;2023-04-19T02:26:22;23.42;;;15.77;;
29902;SDS011;30288;50.514;9.678;2023-04-19T02:28:27;22.48;;;15.00;;
29902;SDS011;30288;50.514;9.678;2023-04-19T02:30:35;25.92;;;15.93;;
29902;SDS011;30288;50.514;9.678;2023-04-19T02:32:40;23.00;;;15.88;;
29902;SDS011;30288;50.514;9.678;2023-04-19T02:34:45;24.23;;;15.02;;
29902;SDS011;30288;50.514;9.678;2023-04-19T02:36:51;23.02;;;14.65;;
29902;SDS011;30288;50.514;9.678;2023-04-19T02:38:56;26.25;;;15.13;;
29902;SDS011;30288;50.514;9.678;2023-04-19T02:41:01;19.38;;;13.48;;
29902;SDS011;30288;50.514;9.678;2023-04-19T02:43:07;20.10;;;12.93;;
29902;SDS011;30288;50.514;9.678;2023-04-19T02:45:12;21.50;;;13.25;;
29902;SDS011;30288;50.514;9.678;2023-04-19T02:47:20;20.73;;;13.40;;
29902;SDS011;30288;50.514;9.678;2023-04-19T02:49:25;22.48;;;13.68;;
29902;SDS011;30288;50.514;9.678;2023-04-19T02:51:33;20.88;;;13.18;;
29902;SDS011;30288;50.514;9.678;2023-04-19T02:53:38;18.63;;;12.45;;
29902;SDS011;30288;50.514;9.678;2023-04-19T02:55:43;22.40;;;12.13;;
29902;SDS011;30288;50.514;9.678;2023-04-19T02:57:52;21.33;;;12.82;;
29902;SDS011;30288;50.514;9.678;2023-04-19T02:59:57;18.85;;;12.13;;
29902;SDS011;30288;50.514;9.678;2023-04-19T03:02:03;19.67;;;12.55;;
29902;SDS011;30288;50.514;9.678;2023-04-19T03:04:11;19.92;;;11.98;;
29902;SDS011;30288;50.514;9.678;2023-04-19T03:06:18;18.70;;;11.95;;
29902;SDS011;30288;50.514;9.678;2023-04-19T03:08:24;20.13;;;10.65;;
29902;SDS011;30288;50.514;9.678;2023-04-19T03:10:29;20.73;;;11.32;;
29902;SDS011;30288;50.514;9.678;2023-04-19T03:12:34;16.23;;;11.32;;
29902;SDS011;30288;50.514;9.678;2023-04-19T03:14:39;19.48;;;9.95;;
29902;SDS011;30288;50.514;9.678;2023-04-19T03:16:45;15.98;;;10.95;;
29902;SDS011;30288;50.514;9.678;2023-04-19T03:18:50;15.40;;;9.90;;
29902;SDS011;30288;50.514;9.678;2023-04-19T03:21:01;18.67;;;10.90;;
29902;SDS011;30288;50.514;9.678;2023-04-19T03:23:24;17.80;;;10.40;;
29902;SDS011;30288;50.514;9.678;2023-04-19T03:25:33;20.08;;;11.82;;
29902;SDS011;30288;50.514;9.678;2023-04-19T03:30:24;16.98;;;10.60;;
29902;SDS011;30288;50.514;9.678;2023-04-19T03:32:30;19.50;;;12.18;;
29902;SDS011;30288;50.514;9.678;2023-04-19T03:34:36;20.17;;;11.50;;
29902;SDS011;30288;50.514;9.678;2023-04-19T03:36:44;18.40;;;11.65;;
29902;SDS011;30288;50.514;9.678;2023-04-19T03:38:49;18.85;;;11.40;;
29902;SDS011;30288;50.514;9.678;2023-04-19T03:40:55;22.42;;;12.48;;
29902;SDS011;30288;50.514;9.678;2023-04-19T03:43:05;21.13;;;13.60;;
29902;SDS011;30288;50.514;9.678;2023-04-19T03:45:10;19.98;;;12.63;;
29902;SDS011;30288;50.514;9.678;2023-04-19T03:47:20;24.35;;;14.10;;
29902;SDS011;30288;50.514;9.678;2023-04-19T03:49:29;23.85;;;14.40;;
29902;SDS011;30288;50.514;9.678;2023-04-19T03:51:38;21.90;;;14.25;;
29902;SDS011;30288;50.514;9.678;2023-04-19T03:53:46;23.67;;;14.82;;
29902;SDS011;30288;50.514;9.678;2023-04-19T03:55:52;24.13;;;16.30;;
29902;SDS011;30288;50.514;9.678;2023-04-19T03:57:57;24.58;;;16.33;;
29902;SDS011;30288;50.514;9.678;2023-04-19T04:00:12;25.80;;;16.35;;
29902;SDS011;30288;50.514;9.678;2023-04-19T04:02:23;27.10;;;17.92;;
29902;SDS011;30288;50.514;9.678;2023-04-19T04:04:28;25.48;;;16.08;;
29902;SDS011;30288;50.514;9.678;2023-04-19T04:06:34;25.92;;;15.93;;
29902;SDS011;30288;50.514;9.678;2023-04-19T04:08:40;25.80;;;16.00;;
29902;SDS011;30288;50.514;9.678;2023-04-19T04:10:48;24.90;;;15.75;;
29902;SDS011;30288;50.514;9.678;2023-04-19T04:12:54;21.77;;;14.88;;
29902;SDS011;30288;50.514;9.678;2023-04-19T04:15:10;23.30;;;14.10;;
29902;SDS011;30288;50.514;9.678;2023-04-19T04:17:21;24.17;;;14.55;;
29902;SDS011;30288;50.514;9.678;2023-04-19T04:19:26;23.70;;;13.45;;
29902;SDS011;30288;50.514;9.678;2023-04-19T04:21:31;20.90;;;12.70;;
29902;SDS011;30288;50.514;9.678;2023-04-19T04:23:38;19.40;;;12.10;;
29902;SDS011;30288;50.514;9.678;2023-04-19T04:25:57;19.25;;;11.63;;
29902;SDS011;30288;50.514;9.678;2023-04-19T04:28:21;16.58;;;11.20;;
29902;SDS011;30288;50.514;9.678;2023-04-19T04:30:27;18.42;;;9.93;;
29902;SDS011;30288;50.514;9.678;2023-04-19T04:32:32;17.73;;;10.85;;
29902;SDS011;30288;50.514;9.678;2023-04-19T04:34:39;21.50;;;10.68;;
29902;SDS011;30288;50.514;9.678;2023-04-19T04:36:51;16.77;;;9.30;;
29902;SDS011;30288;50.514;9.678;2023-04-19T04:38:57;14.57;;;9.13;;
29902;SDS011;30288;50.514;9.678;2023-04-19T04:41:06;15.65;;;10.02;;
29902;SDS011;30288;50.514;9.678;2023-04-19T04:43:12;17.63;;;9.63;;
29902;SDS011;30288;50.514;9.678;2023-04-19T04:45:18;16.25;;;7.93;;
29902;SDS011;30288;50.514;9.678;2023-04-19T04:47:24;16.17;;;8.40;;
29902;SDS011;30288;50.514;9.678;2023-04-19T04:49:37;13.95;;;8.23;;
29902;SDS011;30288;50.514;9.678;2023-04-19T04:51:42;12.88;;;7.50;;
29902;SDS011;30288;50.514;9.678;2023-04-19T04:53:48;12.82;;;7.50;;
29902;SDS011;30288;50.514;9.678;2023-04-19T04:55:53;13.80;;;7.18;;
29902;SDS011;30288;50.514;9.678;2023-04-19T04:58:01;13.07;;;6.45;;
29902;SDS011;30288;50.514;9.678;2023-04-19T05:00:27;11.30;;;5.95;;
29902;SDS011;30288;50.514;9.678;2023-04-19T05:02:37;13.65;;;6.07;;
29902;SDS011;30288;50.514;9.678;2023-04-19T05:04:42;13.93;;;6.47;;
29902;SDS011;30288;50.514;9.678;2023-04-19T05:06:47;11.40;;;6.20;;
29902;SDS011;30288;50.514;9.678;2023-04-19T05:08:57;12.95;;;5.75;;
29902;SDS011;30288;50.514;9.678;2023-04-19T05:11:07;9.57;;;5.78;;
29902;SDS011;30288;50.514;9.678;2023-04-19T05:13:15;10.00;;;5.18;;
29902;SDS011;30288;50.514;9.678;2023-04-19T05:15:21;13.52;;;5.82;;
29902;SDS011;30288;50.514;9.678;2023-04-19T05:17:28;12.45;;;5.57;;
29902;SDS011;30288;50.514;9.678;2023-04-19T05:19:33;11.88;;;5.55;;
29902;SDS011;30288;50.514;9.678;2023-04-19T05:21:40;13.70;;;6.20;;
29902;SDS011;30288;50.514;9.678;2023-04-19T05:23:47;14.70;;;6.35;;
29902;SDS011;30288;50.514;9.678;2023-04-19T05:25:54;9.38;;;5.78;;
29902;SDS011;30288;50.514;9.678;2023-04-19T05:28:02;13.93;;;5.82;;
29902;SDS011;30288;50.514;9.678;2023-04-19T05:30:21;10.00;;;5.45;;
29902;SDS011;30288;50.514;9.678;2023-04-19T05:32:26;9.15;;;5.38;;
29902;SDS011;30288;50.514;9.678;2023-04-19T05:34:33;12.15;;;5.93;;
29902;SDS011;30288;50.514;9.678;2023-04-19T05:36:40;13.25;;;6.45;;
29902;SDS011;30288;50.514;9.678;2023-04-19T05:38:45;11.73;;;5.78;;
29902;SDS011;30288;50.514;9.678;2023-04-19T05:40:50;9.88;;;5.40;;
29902;SDS011;30288;50.514;9.678;2023-04-19T05:42:56;11.82;;;5.40;;
29902;SDS011;30288;50.514;9.678;2023-04-19T05:45:01;9.45;;;5.38;;
29902;SDS011;30288;50.514;9.678;2023-04-19T05:47:10;12.32;;;5.97;;
29902;SDS011;30288;50.514;9.678;2023-04-19T05:49:44;9.30;;;5.47;;
29902;SDS011;30288;50.514;9.678;2023-04-19T05:51:54;10.50;;;5.80;;
29902;SDS011;30288;50.514;9.678;2023-04-19T05:54:12;10.88;;;5.90;;
29902;SDS011;30288;50.514;9.678;2023-04-19T05:56:21;14.95;;;6.07;;
29902;SDS011;30288;50.514;9.678;2023-04-19T05:58:26;11.55;;;7.00;;
29902;SDS011;30288;50.514;9.678;2023-04-19T06:00:32;14.48;;;6.32;;
29902;SDS011;30288;50.514;9.678;2023-04-19T06:02:46;10.10;;;5.68;;
29902;SDS011;30288;50.514;9.678;2023-04-19T06:04:52;10.30;;;5.80;;
29902;SDS011;30288;50.514;9.678;2023-04-19T06:07:02;19.48;;;7.30;;
29902;SDS011;30288;50.514;9.678;2023-04-19T06:09:22;12.43;;;6.25;;
29902;SDS011;30288;50.514;9.678;2023-04-19T06:11:27;14.02;;;6.00;;
29902;SDS011;30288;50.514;9.678;2023-04-19T06:13:47;9.48;;;5.88;;
29902;SDS011;30288;50.514;9.678;2023-04-19T06:15:53;10.13;;;6.20;;
29902;SDS011;30288;50.514;9.678;2023-04-19T06:18:01;10.82;;;5.95;;
29902;SDS011;30288;50.514;9.678;2023-04-19T06:20:19;11.23;;;5.88;;
29902;SDS011;30288;50.514;9.678;2023-04-19T06:22:24;10.68;;;6.13;;
29902;SDS011;30288;50.514;9.678;2023-04-19T06:24:29;16.63;;;6.40;;
29902;SDS011;30288;50.514;9.678;2023-04-19T06:26:36;14.32;;;6.10;;
29902;SDS011;30288;50.514;9.678;2023-04-19T06:28:41;11.70;;;6.05;;
29902;SDS011;30288;50.514;9.678;2023-04-19T06:30:46;9.18;;;5.32;;
29902;SDS011;30288;50.514;9.678;2023-04-19T06:32:51;12.05;;;5.85;;
29902;SDS011;30288;50.514;9.678;2023-04-19T06:35:00;13.15;;;5.60;;
29902;SDS011;30288;50.514;9.678;2023-04-19T06:37:05;10.77;;;5.75;;
29902;SDS011;30288;50.514;9.678;2023-04-19T06:39:10;9.25;;;5.30;;
29902;SDS011;30288;50.514;9.678;2023-04-19T06:41:16;10.55;;;5.55;;
29902;SDS011;30288;50.514;9.678;2023-04-19T06:43:21;8.75;;;5.22;;
29902;SDS011;30288;50.514;9.678;2023-04-19T06:45:26;9.55;;;5.68;;
29902;SDS011;30288;50.514;9.678;2023-04-19T06:47:33;12.15;;;6.55;;
29902;SDS011;30288;50.514;9.678;2023-04-19T06:49:39;13.65;;;6.38;;
29902;SDS011;30288;50.514;9.678;2023-04-19T06:51:46;10.38;;;5.88;;
29902;SDS011;30288;50.514;9.678;2023-04-19T06:53:51;10.07;;;6.30;;
29902;SDS011;30288;50.514;9.678;2023-04-19T06:55:57;11.10;;;5.68;;
29902;SDS011;30288;50.514;9.678;2023-04-19T06:58:05;9.05;;;5.47;;
29902;SDS011;30288;50.514;9.678;2023-04-19T07:00:12;11.55;;;6.50;;
29902;SDS011;30288;50.514;9.678;2023-04-19T07:02:18;14.80;;;6.30;;
29902;SDS011;30288;50.514;9.678;2023-04-19T07:04:24;10.93;;;5.95;;
29902;SDS011;30288;50.514;9.678;2023-04-19T07:06:30;8.52;;;5.18;;
29902;SDS011;30288;50.514;9.678;2023-04-19T07:08:38;11.25;;;5.65;;
29902;SDS011;30288;50.514;9.678;2023-04-19T07:10:48;13.20;;;6.65;;
29902;SDS011;30288;50.514;9.678;2023-04-19T07:12:54;10.27;;;6.65;;
29902;SDS011;30288;50.514;9.678;2023-04-19T07:14:59;11.63;;;6.28;;
29902;SDS011;30288;50.514;9.678;2023-04-19T07:17:04;12.07;;;6.05;;
29902;SDS011;30288;50.514;9.678;2023-04-19T07:19:09;9.95;;;6.00;;
29902;SDS011;30288;50.514;9.678;2023-04-19T07:21:15;11.52;;;5.18;;
29902;SDS011;30288;50.514;9.678;2023-04-19T07:23:20;10.63;;;6.20;;
29902;SDS011;30288;50.514;9.678;2023-04-19T07:25:27;10.70;;;5.80;;
29902;SDS011;30288;50.514;9.678;2023-04-19T07:27:33;10.38;;;6.00;;
29902;SDS011;30288;50.514;9.678;2023-04-19T07:29:38;11.48;;;6.10;;
29902;SDS011;30288;50.514;9.678;2023-04-19T07:31:44;18.38;;;6.38;;
29902;SDS011;30288;50.514;9.678;2023-04-19T07:33:49;12.35;;;6.18;;
29902;SDS011;30288;50.514;9.678;2023-04-19T07:35:55;14.90;;;5.75;;
29902;SDS011;30288;50.514;9.678;2023-04-19T07:38:00;11.38;;;5.70;;
29902;SDS011;30288;50.514;9.678;2023-04-19T07:40:06;11.82;;;6.55;;
29902;SDS011;30288;50.514;9.678;2023-04-19T07:42:15;11.57;;;6.30;;
29902;SDS011;30288;50.514;9.678;2023-04-19T07:44:20;14.25;;;6.57;;
29902;SDS011;30288;50.514;9.678;2023-04-19T07:46:26;12.43;;;6.50;;
29902;SDS011;30288;50.514;9.678;2023-04-19T07:48:31;12.80;;;6.30;;
29902;SDS011;30288;50.514;9.678;2023-04-19T07:50:37;13.55;;;6.75;;
29902;SDS011;30288;50.514;9.678;2023-04-19T07:52:42;15.25;;;7.50;;
29902;SDS011;30288;50.514;9.678;2023-04-19T07:54:47;18.60;;;7.80;;
29902;SDS011;30288;50.514;9.678;2023-04-19T07:56:53;11.48;;;6.88;;
29902;SDS011;30288;50.514;9.678;2023-04-19T07:59:00;13.75;;;6.95;;
29902;SDS011;30288;50.514;9.678;2023-04-19T08:01:10;13.13;;;7.30;;
29902;SDS011;30288;50.514;9.678;2023-04-19T08:03:15;11.57;;;6.20;;
29902;SDS011;30288;50.514;9.678;2023-04-19T08:05:21;15.77;;;6.82;;
29902;SDS011;30288;50.514;9.678;2023-04-19T08:07:27;12.63;;;6.95;;
29902;SDS011;30288;50.514;9.678;2023-04-19T08:09:32;18.10;;;7.60;;
29902;SDS011;30288;50.514;9.678;2023-04-19T08:11:38;14.15;;;7.20;;
29902;SDS011;30288;50.514;9.678;2023-04-19T08:13:43;11.25;;;7.00;;
29902;SDS011;30288;50.514;9.678;2023-04-19T08:16:11;12.77;;;7.45;;
29902;SDS011;30288;50.514;9.678;2023-04-19T08:18:36;15.93;;;7.22;;
29902;SDS011;30288;50.514;9.678;2023-04-19T08:20:41;12.35;;;6.88;;
29902;SDS011;30288;50.514;9.678;2023-04-19T08:22:47;10.35;;;6.35;;
29902;SDS011;30288;50.514;9.678;2023-04-19T08:24:52;10.52;;;6.72;;
29902;SDS011;30288;50.514;9.678;2023-04-19T08:26:57;13.43;;;6.85;;
29902;SDS011;30288;50.514;9.678;2023-04-19T08:29:02;13.20;;;6.18;;
29902;SDS011;30288;50.514;9.678;2023-04-19T08:31:08;16.52;;;6.63;;
29902;SDS011;30288;50.514;9.678;2023-04-19T08:33:15;12.82;;;5.70;;
29902;SDS011;30288;50.514;9.678;2023-04-19T08:35:21;9.45;;;5.72;;
29902;SDS011;30288;50.514;9.678;2023-04-19T08:37:26;8.38;;;5.15;;
29902;SDS011;30288;50.514;9.678;2023-04-19T08:39:32;15.48;;;5.95;;
29902;SDS011;30288;50.514;9.678;2023-04-19T08:41:38;12.98;;;5.97;;
29902;SDS011;30288;50.514;9.678;2023-04-19T08:43:48;11.98;;;5.57;;
29902;SDS011;30288;50.514;9.678;2023-04-19T08:45:57;13.82;;;5.75;;
29902;SDS011;30288;50.514;9.678;2023-04-19T08:48:03;8.88;;;4.80;;
29902;SDS011;30288;50.514;9.678;2023-04-19T08:50:13;11.68;;;4.28;;
29902;SDS011;30288;50.514;9.678;2023-04-19T08:52:36;17.45;;;4.68;;
29902;SDS011;30288;50.514;9.678;2023-04-19T08:54:55;9.52;;;4.18;;
29902;SDS011;30288;50.514;9.678;2023-04-19T08:57:01;10.27;;;4.60;;
29902;SDS011;30288;50.514;9.678;2023-04-19T08:59:09;11.02;;;4.15;;
29902;SDS011;30288;50.514;9.678;2023-04-19T09:01:20;7.57;;;4.15;;
29902;SDS011;30288;50.514;9.678;2023-04-19T09:03:28;12.75;;;4.63;;
29902;SDS011;30288;50.514;9.678;2023-04-19T09:05:50;11.48;;;3.80;;
29902;SDS011;30288;50.514;9.678;2023-04-19T09:08:02;8.48;;;3.83;;
29902;SDS011;30288;50.514;9.678;2023-04-19T09:10:25;8.48;;;3.75;;
29902;SDS011;30288;50.514;9.678;2023-04-19T09:12:31;8.25;;;3.30;;
29902;SDS011;30288;50.514;9.678;2023-04-19T09:14:40;6.57;;;2.90;;
29902;SDS011;30288;50.514;9.678;2023-04-19T09:19:25;6.65;;;2.17;;
29902;SDS011;30288;50.514;9.678;2023-04-19T09:21:51;5.20;;;2.95;;
29902;SDS011;30288;50.514;9.678;2023-04-19T09:23:56;6.43;;;2.20;;
29902;SDS011;30288;50.514;9.678;2023-04-19T09:26:04;9.55;;;2.63;;
29902;SDS011;30288;50.514;9.678;2023-04-19T09:28:23;5.30;;;2.10;;
29902;SDS011;30288;50.514;9.678;2023-04-19T09:30:29;5.80;;;2.33;;
29902;SDS011;30288;50.514;9.678;2023-04-19T09:32:47;6.40;;;2.25;;
29902;SDS011;30288;50.514;9.678;2023-04-19T09:34:53;5.53;;;2.22;;
29902;SDS011;30288;50.514;9.678;2023-04-19T09:37:12;7.97;;;2.60;;
29902;SDS011;30288;50.514;9.678;2023-04-19T09:39:38;5.55;;;2.30;;
29902;SDS011;30288;50.514;9.678;2023-04-19T09:41:50;7.90;;;2.08;;
29902;SDS011;30288;50.514;9.678;2023-04-19T09:44:01;8.30;;;2.30;;
29902;SDS011;30288;50.514;9.678;2023-04-19T09:46:29;6.50;;;2.33;;
29902;SDS011;30288;50.514;9.678;2023-04-19T09:48:35;7.57;;;2.08;;
29902;SDS011;30288;50.514;9.678;2023-04-19T09:50:50;5.85;;;2.10;;
29902;SDS011;30288;50.514;9.678;2023-04-19T09:53:08;7.35;;;2.22;;
29902;SDS011;30288;50.514;9.678;2023-04-19T09:55:16;7.70;;;2.38;;
29902;SDS011;30288;50.514;9.678;2023-04-19T09:57:29;6.05;;;2.35;;
29902;SDS011;30288;50.514;9.678;2023-04-19T09:59:35;10.25;;;2.20;;
29902;SDS011;30288;50.514;9.678;2023-04-19T10:01:42;8.93;;;2.63;;
29902;SDS011;30288;50.514;9.678;2023-04-19T10:03:50;6.55;;;2.13;;
29902;SDS011;30288;50.514;9.678;2023-04-19T10:06:07;7.22;;;2.40;;
29902;SDS011;30288;50.514;9.678;2023-04-19T10:08:34;4.22;;;2.15;;
29902;SDS011;30288;50.514;9.678;2023-04-19T10:10:41;11.35;;;2.58;;
29902;SDS011;30288;50.514;9.678;2023-04-19T10:12:56;10.00;;;2.75;;
29902;SDS011;30288;50.514;9.678;2023-04-19T10:15:20;7.25;;;2.63;;
29902;SDS011;30288;50.514;9.678;2023-04-19T10:17:27;3.47;;;1.70;;
29902;SDS011;30288;50.514;9.678;2023-04-19T10:19:33;6.55;;;2.05;;
29902;SDS011;30288;50.514;9.678;2023-04-19T10:21:41;7.53;;;2.08;;
29902;SDS011;30288;50.514;9.678;2023-04-19T10:23:50;8.27;;;2.50;;
29902;SDS011;30288;50.514;9.678;2023-04-19T10:25:56;6.38;;;2.58;;
29902;SDS011;30288;50.514;9.678;2023-04-19T10:28:01;6.80;;;2.28;;
29902;SDS011;30288;50.514;9.678;2023-04-19T10:30:07;5.28;;;1.95;;
29902;SDS011;30288;50.514;9.678;2023-04-19T10:32:21;8.40;;;2.33;;
29902;SDS011;30288;50.514;9.678;2023-04-19T10:34:35;8.63;;;2.30;;
29902;SDS011;30288;50.514;9.678;2023-04-19T10:36:42;13.30;;;2.60;;
29902;SDS011;30288;50.514;9.678;2023-04-19T10:38:50;6.13;;;1.80;;
29902;SDS011;30288;50.514;9.678;2023-04-19T10:40:57;2.72;;;1.30;;
29902;SDS011;30288;50.514;9.678;2023-04-19T10:43:15;7.13;;;1.83;;
29902;SDS011;30288;50.514;9.678;2023-04-19T10:45:33;7.55;;;2.15;;
29902;SDS011;30288;50.514;9.678;2023-04-19T10:47:40;4.30;;;1.50;;
29902;SDS011;30288;50.514;9.678;2023-04-19T10:49:46;3.97;;;2.00;;
29902;SDS011;30288;50.514;9.678;2023-04-19T10:51:56;3.78;;;1.90;;
29902;SDS011;30288;50.514;9.678;2023-04-19T10:54:05;5.68;;;1.90;;
29902;SDS011;30288;50.514;9.678;2023-04-19T10:56:11;7.30;;;1.77;;
29902;SDS011;30288;50.514;9.678;2023-04-19T10:58:18;5.20;;;1.70;;
29902;SDS011;30288;50.514;9.678;2023-04-19T11:00:24;4.07;;;1.50;;
29902;SDS011;30288;50.514;9.678;2023-04-19T11:02:32;5.30;;;1.67;;
29902;SDS011;30288;50.514;9.678;2023-04-19T11:07:10;4.38;;;1.70;;
29902;SDS011;30288;50.514;9.678;2023-04-19T11:09:23;3.25;;;1.40;;
29902;SDS011;30288;50.514;9.678;2023-04-19T11:11:29;6.35;;;1.60;;
29902;SDS011;30288;50.514;9.678;2023-04-19T11:13:38;4.25;;;1.60;;
29902;SDS011;30288;50.514;9.678;2023-04-19T11:15:45;5.65;;;1.85;;
29902;SDS011;30288;50.514;9.678;2023-04-19T11:17:50;5.75;;;1.85;;
29902;SDS011;30288;50.514;9.678;2023-04-19T11:20:13;3.95;;;1.60;;
29902;SDS011;30288;50.514;9.678;2023-04-19T11:22:18;3.10;;;1.60;;
29902;SDS011;30288;50.514;9.678;2023-04-19T11:24:46;4.90;;;1.85;;
29902;SDS011;30288;50.514;9.678;2023-04-19T11:26:51;7.45;;;1.83;;
29902;SDS011;30288;50.514;9.678;2023-04-19T11:28:59;4.85;;;1.65;;
29902;SDS011;30288;50.514;9.678;2023-04-19T11:31:05;5.70;;;2.13;;
29902;SDS011;30288;50.514;9.678;2023-04-19T11:33:11;6.78;;;1.90;;
29902;SDS011;30288;50.514;9.678;2023-04-19T11:35:17;4.97;;;1.92;;
29902;SDS011;30288;50.514;9.678;2023-04-19T11:37:24;5.95;;;1.75;;
29902;SDS011;30288;50.514;9.678;2023-04-19T11:39:46;3.70;;;1.77;;
29902;SDS011;30288;50.514;9.678;2023-04-19T11:41:51;4.32;;;1.67;;
29902;SDS011;30288;50.514;9.678;2023-04-19T11:43:56;5.82;;;1.65;;
29902;SDS011;30288;50.514;9.678;2023-04-19T11:46:03;4.05;;;1.90;;
29902;SDS011;30288;50.514;9.678;2023-04-19T11:48:12;6.72;;;2.15;;
29902;SDS011;30288;50.514;9.678;2023-04-19T11:50:31;5.60;;;1.80;;
29902;SDS011;30288;50.514;9.678;2023-04-19T11:52:38;4.68;;;2.08;;
29902;SDS011;30288;50.514;9.678;2023-04-19T11:54:46;4.07;;;1.70;;
29902;SDS011;30288;50.514;9.678;2023-04-19T11:56:58;6.43;;;1.90;;
29902;SDS011;30288;50.514;9.678;2023-04-19T11:59:07;5.28;;;1.88;;
29902;SDS011;30288;50.514;9.678;2023-04-19T12:01:14;4.60;;;1.98;;
29902;SDS011;30288;50.514;9.678;2023-04-19T12:03:22;3.97;;;1.83;;
29902;SDS011;30288;50.514;9.678;2023-04-19T12:05:28;9.95;;;2.13;;
29902;SDS011;30288;50.514;9.678;2023-04-19T12:07:34;4.75;;;2.15;;
29902;SDS011;30288;50.514;9.678;2023-04-19T12:09:39;5.25;;;2.05;;
29902;SDS011;30288;50.514;9.678;2023-04-19T12:11:47;5.03;;;2.10;;
29902;SDS011;30288;50.514;9.678;2023-04-19T12:14:06;6.18;;;1.90;;
29902;SDS011;30288;50.514;9.678;2023-04-19T12:16:12;7.53;;;2.20;;
29902;SDS011;30288;50.514;9.678;2023-04-19T12:18:17;5.05;;;1.77;;
29902;SDS011;30288;50.514;9.678;2023-04-19T12:20:31;4.90;;;1.90;;
29902;SDS011;30288;50.514;9.678;2023-04-19T12:22:38;5.72;;;2.17;;
29902;SDS011;30288;50.514;9.678;2023-04-19T12:24:49;7.53;;;2.35;;
29902;SDS011;30288;50.514;9.678;2023-04-19T12:26:58;4.25;;;2.10;;
29902;SDS011;30288;50.514;9.678;2023-04-19T12:29:05;8.68;;;2.50;;
29902;SDS011;30288;50.514;9.678;2023-04-19T12:31:10;4.70;;;2.05;;
29902;SDS011;30288;50.514;9.678;2023-04-19T12:33:15;5.85;;;2.50;;
29902;SDS011;30288;50.514;9.678;2023-04-19T12:35:20;7.50;;;2.42;;
29902;SDS011;30288;50.514;9.678;2023-04-19T12:37:27;7.88;;;2.65;;
29902;SDS011;30288;50.514;9.678;2023-04-19T12:39:33;5.90;;;2.15;;
29902;SDS011;30288;50.514;9.678;2023-04-19T12:41:38;6.78;;;2.40;;
29902;SDS011;30288;50.514;9.678;2023-04-19T12:43:46;4.93;;;2.08;;
29902;SDS011;30288;50.514;9.678;2023-04-19T12:45:51;6.97;;;2.10;;
29902;SDS011;30288;50.514;9.678;2023-04-19T12:47:56;4.93;;;1.95;;